Time;durP1;ratioP1;P1;durP2;ratioP2;P2;SDS_P1;SDS_P2;PMS_P1;PMS_P2;Temp;Humidity;BMP_temperature;BMP_pressure;BME280_temperature;BME280_humidity;BME280_pressure;Samples;Min_cycle;Max_cycle;Signal;HPM_P1;HPM_P2
2022/03/28 00:00:47;;;;;;;2.55;2.30;;;18.40;55.50;;;;;;5015816;28;20071;-67
2022/03/28 00:03:13;;;;;;;2.78;2.55;;;18.40;55.60;;;;;;5014717;28;20057;-67
2022/03/28 00:05:39;;;;;;;3.08;2.67;;;18.40;55.60;;;;;;5014588;28;20021;-67
2022/03/28 00:08:05;;;;;;;3.08;2.78;;;18.40;55.60;;;;;;5014801;28;20508;-67
2022/03/28 00:10:30;;;;;;;2.70;2.50;;;18.40;55.60;;;;;;5015664;28;20100;-67
2022/03/28 00:12:56;;;;;;;3.10;2.80;;;18.40;55.70;;;;;;5015562;28;20488;-67
2022/03/28 00:15:22;;;;;;;2.42;2.25;;;18.40;55.70;;;;;;5014582;28;20034;-67
2022/03/28 00:17:48;;;;;;;2.65;2.45;;;18.40;55.70;;;;;;5014576;28;20014;-67
2022/03/28 00:20:13;;;;;;;3.17;2.72;;;18.40;55.70;;;;;;5015494;28;20056;-68
2022/03/28 00:22:39;;;;;;;3.17;2.35;;;18.40;55.70;;;;;;5014222;28;20029;-67
2022/03/28 00:25:06;;;;;;;7.10;2.70;;;18.40;55.70;;;;;;5027335;28;20033;-67
2022/03/28 00:27:32;;;;;;;3.80;3.20;;;18.40;55.80;;;;;;5035210;28;20018;-67
2022/03/28 00:29:58;;;;;;;3.63;2.50;;;18.40;55.80;;;;;;5034039;28;20399;-67
2022/03/28 00:32:23;;;;;;;3.95;2.80;;;18.40;55.80;;;;;;5022280;28;20083;-67
2022/03/28 00:34:49;;;;;;;2.70;2.50;;;18.40;55.90;;;;;;5015294;28;20075;-67
2022/03/28 00:37:15;;;;;;;4.15;2.70;;;18.40;55.90;;;;;;5014018;28;20543;-67
2022/03/28 00:39:40;;;;;;;2.72;2.53;;;18.40;55.90;;;;;;5013693;28;20037;-67
2022/03/28 00:42:06;;;;;;;3.45;2.90;;;18.40;55.90;;;;;;5013810;28;20032;-67
2022/03/28 00:44:32;;;;;;;3.95;2.67;;;18.40;56.00;;;;;;4997626;28;20034;-67
2022/03/28 00:46:58;;;;;;;3.80;3.20;;;18.40;55.90;;;;;;5013901;28;20022;-67
2022/03/28 00:49:24;;;;;;;3.10;2.80;;;18.40;56.00;;;;;;5013876;28;20512;-67
2022/03/28 00:51:50;;;;;;;2.97;2.67;;;18.40;56.00;;;;;;5013897;28;20026;-67
2022/03/28 00:54:15;;;;;;;3.50;2.80;;;18.40;56.00;;;;;;5013611;28;20026;-67
2022/03/28 00:56:42;;;;;;;3.42;3.03;;;18.40;56.10;;;;;;5015059;28;20053;-67
2022/03/28 00:59:08;;;;;;;3.55;2.75;;;18.40;56.10;;;;;;5013674;28;20084;-68
2022/03/28 01:01:33;;;;;;;3.53;2.67;;;18.40;56.10;;;;;;5013397;28;20025;-68
2022/03/28 01:03:59;;;;;;;3.25;2.65;;;18.40;56.10;;;;;;5013676;28;20113;-68
2022/03/28 01:06:25;;;;;;;2.88;2.60;;;18.40;56.10;;;;;;5012544;28;20061;-67
2022/03/28 01:08:51;;;;;;;3.70;2.65;;;18.40;56.10;;;;;;5013172;28;20393;-68
2022/03/28 01:11:17;;;;;;;2.92;2.60;;;18.40;56.20;;;;;;5013394;28;20181;-67
2022/03/28 01:13:43;;;;;;;3.08;2.78;;;18.40;56.20;;;;;;5013229;28;20034;-68
2022/03/28 01:16:09;;;;;;;2.70;2.50;;;18.40;56.30;;;;;;5013517;28;20036;-68
2022/03/28 01:18:34;;;;;;;2.88;2.65;;;18.40;56.20;;;;;;5013452;28;20030;-68
2022/03/28 01:21:01;;;;;;;3.13;2.38;;;18.40;56.30;;;;;;5014301;28;20030;-68
2022/03/28 01:23:27;;;;;;;3.13;2.80;;;18.40;56.30;;;;;;5012744;28;20030;-68
2022/03/28 01:25:53;;;;;;;3.63;3.28;;;18.40;56.30;;;;;;5032886;28;20025;-68
2022/03/28 01:28:20;;;;;;;3.15;2.63;;;18.40;56.30;;;;;;5034088;28;20087;-67
2022/03/28 01:30:46;;;;;;;2.90;2.60;;;18.40;56.30;;;;;;5033081;28;20056;-67
2022/03/28 01:33:12;;;;;;;7.57;3.20;;;18.40;56.30;;;;;;5014470;28;20551;-67
2022/03/28 01:35:38;;;;;;;2.78;2.58;;;18.40;56.40;;;;;;5014166;28;20061;-67
2022/03/28 01:38:11;;;;;;;3.00;2.70;;;18.40;56.40;;;;;;5014111;28;20022;-67
2022/03/28 01:40:44;;;;;;;4.68;3.03;;;18.40;56.40;;;;;;5012881;28;20064;-67
2022/03/28 01:43:10;;;;;;;5.18;2.80;;;18.40;56.40;;;;;;5013922;28;20077;-67
2022/03/28 01:45:36;;;;;;;3.08;2.78;;;18.40;56.40;;;;;;5012836;28;20022;-67
2022/03/28 01:48:02;;;;;;;3.20;2.70;;;18.40;56.50;;;;;;5013049;28;20037;-67
2022/03/28 01:50:28;;;;;;;2.85;2.65;;;18.40;56.50;;;;;;5013805;28;20028;-67
2022/03/28 01:52:53;;;;;;;3.25;2.95;;;18.40;56.50;;;;;;5013680;28;20037;-67
2022/03/28 01:55:19;;;;;;;3.05;2.78;;;18.40;56.50;;;;;;5012494;28;20113;-67
2022/03/28 01:57:45;;;;;;;2.95;2.65;;;18.40;56.50;;;;;;5012632;28;20506;-67
2022/03/28 02:00:13;;;;;;;3.58;2.95;;;18.40;56.60;;;;;;5012530;28;20026;-67
2022/03/28 02:02:39;;;;;;;3.63;2.97;;;18.40;56.60;;;;;;5013502;28;20029;-67
2022/03/28 02:05:05;;;;;;;2.72;2.53;;;18.40;56.60;;;;;;5012368;28;20032;-67
2022/03/28 02:07:31;;;;;;;3.25;2.88;;;18.40;56.60;;;;;;5012121;28;20025;-67
2022/03/28 02:09:57;;;;;;;3.38;3.08;;;18.40;56.70;;;;;;5013684;28;20024;-67
2022/03/28 02:12:22;;;;;;;3.17;2.88;;;18.40;56.70;;;;;;5013536;28;20037;-68
2022/03/28 02:14:48;;;;;;;3.10;2.63;;;18.40;56.70;;;;;;5013270;28;20061;-68
2022/03/28 02:17:13;;;;;;;2.65;2.45;;;18.40;56.70;;;;;;5013345;28;20060;-68
2022/03/28 02:19:39;;;;;;;3.63;2.97;;;18.40;56.70;;;;;;5012145;28;20080;-67
2022/03/28 02:22:05;;;;;;;3.33;3.03;;;18.40;56.80;;;;;;5013125;28;20030;-67
2022/03/28 02:24:31;;;;;;;7.50;3.58;;;18.40;56.80;;;;;;5020472;28;20037;-67
2022/03/28 02:26:56;;;;;;;4.47;2.63;;;18.40;56.80;;;;;;5032926;28;20511;-67
2022/03/28 02:29:22;;;;;;;3.25;2.97;;;18.40;56.80;;;;;;5032994;28;20052;-68
2022/03/28 02:31:48;;;;;;;4.55;2.60;;;18.40;56.80;;;;;;5024848;28;20101;-67
2022/03/28 02:34:14;;;;;;;3.08;2.70;;;18.40;56.80;;;;;;5013144;28;20113;-67
2022/03/28 02:36:40;;;;;;;3.55;2.85;;;18.40;56.80;;;;;;4995331;28;20400;-67
2022/03/28 02:39:05;;;;;;;2.95;2.65;;;18.40;56.80;;;;;;5013069;28;20484;-67
2022/03/28 02:41:31;;;;;;;3.17;2.88;;;18.40;56.90;;;;;;5013110;28;20101;-67
2022/03/28 02:43:57;;;;;;;6.05;2.78;;;18.40;56.90;;;;;;5011767;28;20107;-68
2022/03/28 02:46:23;;;;;;;3.25;2.95;;;18.40;56.90;;;;;;5011655;28;20117;-67
2022/03/28 02:48:49;;;;;;;3.58;2.97;;;18.40;56.90;;;;;;5012710;28;20427;-67
2022/03/28 02:51:14;;;;;;;4.18;2.92;;;18.40;56.90;;;;;;5013009;28;20087;-67
2022/03/28 02:53:40;;;;;;;3.30;2.90;;;18.40;57.00;;;;;;5012830;28;20515;-67
2022/03/28 02:56:05;;;;;;;3.15;2.80;;;18.40;57.00;;;;;;5012757;28;20500;-68
2022/03/28 02:58:31;;;;;;;3.67;2.80;;;18.40;57.00;;;;;;5013035;28;20033;-67
2022/03/28 03:00:57;;;;;;;3.13;2.83;;;18.40;57.00;;;;;;5011540;28;20500;-68
2022/03/28 03:03:23;;;;;;;3.22;2.92;;;18.40;57.00;;;;;;5012490;28;20412;-67
2022/03/28 03:05:49;;;;;;;3.20;2.90;;;18.40;57.00;;;;;;5011546;28;20026;-68
2022/03/28 03:08:16;;;;;;;3.42;3.13;;;18.40;57.00;;;;;;5012743;28;20508;-68
2022/03/28 03:10:43;;;;;;;3.10;2.80;;;18.40;57.00;;;;;;5011754;28;20104;-67
2022/03/28 03:13:09;;;;;;;3.20;2.90;;;18.40;57.10;;;;;;5011668;28;20111;-68
2022/03/28 03:15:34;;;;;;;3.25;2.95;;;18.40;57.00;;;;;;5012459;28;20072;-68
2022/03/28 03:18:00;;;;;;;3.10;2.80;;;18.40;57.10;;;;;;5011365;28;20040;-68
2022/03/28 03:20:26;;;;;;;7.82;3.20;;;18.40;57.20;;;;;;5011329;28;20109;-67
2022/03/28 03:22:51;;;;;;;3.17;2.88;;;18.30;57.10;;;;;;5012420;28;20109;-67
2022/03/28 03:25:17;;;;;;;3.40;2.85;;;18.40;57.10;;;;;;5027560;28;20057;-67
2022/03/28 03:27:43;;;;;;;3.22;2.92;;;18.30;57.10;;;;;;5030821;28;20037;-67
2022/03/28 03:30:10;;;;;;;4.68;2.92;;;18.40;57.20;;;;;;5034525;28;20144;-67
2022/03/28 03:32:36;;;;;;;3.40;2.95;;;18.40;57.20;;;;;;5021530;28;20036;-67
2022/03/28 03:35:03;;;;;;;3.03;2.83;;;18.30;57.10;;;;;;5015236;28;20028;-67
2022/03/28 03:37:28;;;;;;;3.17;2.88;;;18.40;57.20;;;;;;5016304;28;20407;-67
2022/03/28 03:39:54;;;;;;;3.83;2.75;;;18.30;57.20;;;;;;5016403;28;20030;-67
2022/03/28 03:42:19;;;;;;;3.47;3.00;;;18.40;57.20;;;;;;5015972;28;20050;-67
2022/03/28 03:44:45;;;;;;;3.00;2.75;;;18.40;57.20;;;;;;5015149;28;20026;-67
2022/03/28 03:47:11;;;;;;;3.80;2.92;;;18.30;57.30;;;;;;5016081;28;20088;-67
2022/03/28 03:49:36;;;;;;;3.20;3.00;;;18.30;57.20;;;;;;5015056;28;20096;-68
2022/03/28 03:52:02;;;;;;;3.03;2.67;;;18.30;57.20;;;;;;5014975;28;20439;-68
2022/03/28 03:54:28;;;;;;;2.97;2.70;;;18.40;57.30;;;;;;5016066;28;20437;-67
2022/03/28 03:56:54;;;;;;;3.60;2.92;;;18.30;57.30;;;;;;5014897;28;20026;-68
2022/03/28 03:59:19;;;;;;;3.00;2.70;;;18.30;57.30;;;;;;5014842;28;20400;-68
2022/03/28 04:01:45;;;;;;;3.00;2.70;;;18.30;57.30;;;;;;5014354;28;20416;-67
2022/03/28 04:04:12;;;;;;;3.10;2.78;;;18.30;57.30;;;;;;5015732;28;20018;-67
2022/03/28 04:06:39;;;;;;;3.33;3.03;;;18.40;57.40;;;;;;5015942;28;20100;-67
2022/03/28 04:09:05;;;;;;;3.10;2.70;;;18.30;57.30;;;;;;5014651;28;20105;-67
2022/03/28 04:11:30;;;;;;;3.15;2.72;;;18.30;57.30;;;;;;5015730;28;20105;-67
2022/03/28 04:13:57;;;;;;;3.17;2.80;;;18.30;57.40;;;;;;5014586;28;20377;-67
2022/03/28 04:16:23;;;;;;;3.42;3.08;;;18.30;57.30;;;;;;5015446;28;20029;-67
2022/03/28 04:18:49;;;;;;;3.65;2.92;;;18.30;57.30;;;;;;5015667;28;20025;-67
2022/03/28 04:21:15;;;;;;;3.08;2.78;;;18.30;57.40;;;;;;5015659;28;20029;-67
2022/03/28 04:23:40;;;;;;;3.30;3.00;;;18.30;57.40;;;;;;5017406;28;20022;-67
2022/03/28 04:26:06;;;;;;;3.75;2.90;;;18.30;57.50;;;;;;5035304;28;20025;-67
2022/03/28 04:28:31;;;;;;;2.72;2.35;;;18.30;57.50;;;;;;5033971;28;20385;-67
2022/03/28 04:30:57;;;;;;;4.93;3.20;;;18.30;57.50;;;;;;5034965;28;20484;-67
2022/03/28 04:33:23;;;;;;;3.00;2.70;;;18.30;57.50;;;;;;5015384;28;20029;-67
2022/03/28 04:35:50;;;;;;;2.88;2.58;;;18.30;57.50;;;;;;5015298;28;20065;-67
2022/03/28 04:38:15;;;;;;;2.90;2.60;;;18.30;57.50;;;;;;5015258;28;20029;-67
2022/03/28 04:40:41;;;;;;;3.20;2.90;;;18.30;57.50;;;;;;5015313;28;20034;-67
2022/03/28 04:43:07;;;;;;;3.38;3.08;;;18.30;57.50;;;;;;5014892;28;20539;-67
2022/03/28 04:45:33;;;;;;;3.75;2.60;;;18.30;57.50;;;;;;5015081;28;20030;-67
2022/03/28 04:47:58;;;;;;;3.50;3.08;;;18.30;57.50;;;;;;5015144;28;20098;-67
2022/03/28 04:50:24;;;;;;;2.75;2.55;;;18.30;57.50;;;;;;5014927;28;20037;-67
2022/03/28 04:52:50;;;;;;;3.10;2.80;;;18.30;57.50;;;;;;5013665;28;20072;-67
2022/03/28 04:55:15;;;;;;;2.90;2.70;;;18.30;57.50;;;;;;5015011;28;20032;-67
2022/03/28 04:57:41;;;;;;;3.60;2.63;;;18.30;57.60;;;;;;5014943;28;20446;-67
2022/03/28 05:00:09;;;;;;;2.70;2.50;;;18.30;57.50;;;;;;5013510;28;20405;-67
2022/03/28 05:02:35;;;;;;;3.17;2.88;;;18.30;57.60;;;;;;5013599;28;20445;-67
2022/03/28 05:05:02;;;;;;;3.75;2.90;;;18.30;57.60;;;;;;4997119;28;20408;-67
2022/03/28 05:07:29;;;;;;;3.33;2.67;;;18.30;57.60;;;;;;5014843;28;20374;-67
2022/03/28 05:09:55;;;;;;;3.10;2.80;;;18.30;57.60;;;;;;5013700;28;20022;-68
2022/03/28 05:12:21;;;;;;;2.72;2.53;;;18.30;57.60;;;;;;5014659;28;20378;-68
2022/03/28 05:14:47;;;;;;;3.28;2.95;;;18.30;57.60;;;;;;5013124;28;20026;-67
2022/03/28 05:17:15;;;;;;;2.85;2.65;;;18.30;57.60;;;;;;5014569;28;20025;-67
2022/03/28 05:19:41;;;;;;;4.05;3.00;;;18.30;57.60;;;;;;5013405;28;20025;-67
2022/03/28 05:22:07;;;;;;;3.50;3.20;;;18.30;57.70;;;;;;5014164;28;20018;-67
2022/03/28 05:24:32;;;;;;;3.40;3.03;;;18.30;57.70;;;;;;5023401;28;20072;-67
2022/03/28 05:26:58;;;;;;;2.88;2.63;;;18.30;57.70;;;;;;5034177;28;20026;-67
2022/03/28 05:29:24;;;;;;;2.58;2.38;;;18.30;57.70;;;;;;5034011;28;20025;-67
2022/03/28 05:31:50;;;;;;;2.90;2.70;;;18.30;57.80;;;;;;5026815;28;20021;-67
2022/03/28 05:34:16;;;;;;;3.08;2.45;;;18.30;57.70;;;;;;5014237;28;20400;-67
2022/03/28 05:36:42;;;;;;;4.00;2.75;;;18.30;57.80;;;;;;5013043;28;20025;-67
2022/03/28 05:39:08;;;;;;;3.88;2.63;;;18.30;57.80;;;;;;5012903;28;20512;-67
2022/03/28 05:41:34;;;;;;;3.95;2.90;;;18.20;57.80;;;;;;5014037;28;20026;-67
2022/03/28 05:44:00;;;;;;;2.80;2.60;;;18.30;57.80;;;;;;5012490;28;20424;-67
2022/03/28 05:46:26;;;;;;;2.67;2.47;;;18.30;57.80;;;;;;5012812;28;20025;-67
2022/03/28 05:48:52;;;;;;;3.63;2.80;;;18.30;58.80;;;;;;5012684;28;20014;-67
2022/03/28 05:51:17;;;;;;;3.28;2.70;;;18.20;57.80;;;;;;5012291;28;20076;-67
2022/03/28 05:53:43;;;;;;;3.15;2.78;;;18.30;57.80;;;;;;5013855;28;20041;-67
2022/03/28 05:56:09;;;;;;;2.50;2.30;;;18.30;57.80;;;;;;5013817;28;20030;-67
2022/03/28 05:58:34;;;;;;;3.17;2.55;;;18.20;57.80;;;;;;5013625;28;20473;-67
2022/03/28 06:01:00;;;;;;;3.03;2.72;;;18.20;57.80;;;;;;5013574;28;20029;-67
2022/03/28 06:03:26;;;;;;;3.00;2.70;;;18.20;57.80;;;;;;5012438;28;20041;-67
2022/03/28 06:05:52;;;;;;;3.03;2.53;;;18.20;57.80;;;;;;5012737;28;20046;-67
2022/03/28 06:08:18;;;;;;;3.45;2.63;;;18.30;57.90;;;;;;5013549;28;20519;-67
2022/03/28 06:10:43;;;;;;;2.88;2.60;;;18.20;57.80;;;;;;5013670;28;20026;-67
2022/03/28 06:13:09;;;;;;;3.08;2.70;;;18.20;57.80;;;;;;5013391;28;20029;-67
2022/03/28 06:15:37;;;;;;;3.13;2.83;;;18.20;57.80;;;;;;5013520;28;20030;-67
2022/03/28 06:18:06;;;;;;;3.75;2.85;;;18.20;57.80;;;;;;5013380;28;20030;-67
2022/03/28 06:20:34;;;;;;;2.70;2.50;;;18.20;57.80;;;;;;5013326;28;20126;-67
2022/03/28 06:23:00;;;;;;;3.40;3.08;;;18.20;57.90;;;;;;5011982;28;20037;-67
2022/03/28 06:25:26;;;;;;;2.67;2.47;;;18.20;57.90;;;;;;5028235;28;20495;-68
2022/03/28 06:27:51;;;;;;;2.92;2.60;;;18.20;57.90;;;;;;5031722;28;20060;-68
2022/03/28 06:30:17;;;;;;;2.72;2.38;;;18.20;57.90;;;;;;5033013;28;20021;-67
2022/03/28 06:32:42;;;;;;;2.50;2.30;;;18.20;57.90;;;;;;5018556;28;20061;-68
2022/03/28 06:35:08;;;;;;;2.83;2.50;;;18.20;57.90;;;;;;5013018;28;20054;-68
2022/03/28 06:37:35;;;;;;;2.90;2.70;;;18.20;57.90;;;;;;5013154;28;20037;-67
2022/03/28 06:40:03;;;;;;;3.42;2.83;;;18.20;57.90;;;;;;5013056;28;20105;-68
2022/03/28 06:42:30;;;;;;;2.63;2.42;;;18.20;58.00;;;;;;5011612;28;20485;-68
2022/03/28 06:44:55;;;;;;;2.80;2.60;;;18.20;57.90;;;;;;5012849;28;20519;-68
2022/03/28 06:47:21;;;;;;;3.08;2.83;;;18.20;58.00;;;;;;5013168;28;20101;-68
2022/03/28 06:49:47;;;;;;;3.10;2.85;;;18.20;58.00;;;;;;5012936;28;20022;-67
2022/03/28 06:52:12;;;;;;;2.92;2.65;;;18.20;58.00;;;;;;5028715;28;20062;-67
2022/03/28 06:54:38;;;;;;;3.53;3.22;;;18.20;58.00;;;;;;5036325;28;20068;-67
2022/03/28 06:57:04;;;;;;;2.78;2.58;;;18.20;58.00;;;;;;5038905;28;20075;-67
2022/03/28 06:59:29;;;;;;;2.60;2.40;;;18.20;58.00;;;;;;5039887;28;20043;-67
2022/03/28 07:01:56;;;;;;;3.30;2.58;;;18.20;58.00;;;;;;5038850;28;20116;-67
2022/03/28 07:04:22;;;;;;;3.20;2.90;;;18.20;58.00;;;;;;5039303;28;20025;-67
2022/03/28 07:06:49;;;;;;;3.20;2.90;;;18.20;58.10;;;;;;5036638;28;20021;-67
2022/03/28 07:09:14;;;;;;;2.95;2.75;;;18.20;58.00;;;;;;5044106;28;20017;-67
2022/03/28 07:11:40;;;;;;;4.47;3.50;;;18.20;58.00;;;;;;5038403;28;20025;-67
2022/03/28 07:14:07;;;;;;;4.72;4.22;;;18.20;57.80;;;;;;5026314;28;20028;-67
2022/03/28 07:16:33;;;;;;;4.45;4.05;;;18.20;57.80;;;;;;5048275;28;20033;-67
2022/03/28 07:18:59;;;;;;;5.38;4.10;;;18.10;57.70;;;;;;5048743;28;20104;-67
2022/03/28 07:21:25;;;;;;;4.22;3.83;;;18.10;57.60;;;;;;5048858;28;20103;-67
2022/03/28 07:23:52;;;;;;;4.32;3.90;;;18.10;57.70;;;;;;5039266;28;20032;-67
2022/03/28 07:26:18;;;;;;;7.03;4.00;;;18.10;57.70;;;;;;5049551;28;20021;-67
2022/03/28 07:28:44;;;;;;;5.10;3.50;;;18.10;57.60;;;;;;5044083;28;20070;-67
2022/03/28 07:31:10;;;;;;;4.70;4.20;;;18.10;57.60;;;;;;5049301;28;20029;-67
2022/03/28 07:33:39;;;;;;;3.83;3.53;;;18.10;57.50;;;;;;5046879;28;20052;-67
2022/03/28 07:36:05;;;;;;;4.70;4.20;;;18.10;57.60;;;;;;5048662;28;20044;-67
2022/03/28 07:38:30;;;;;;;4.50;4.05;;;18.10;57.60;;;;;;5048779;28;20523;-67
2022/03/28 07:40:56;;;;;;;5.25;3.55;;;18.10;57.60;;;;;;5047266;28;20029;-67
2022/03/28 07:43:22;;;;;;;4.05;3.65;;;18.10;57.60;;;;;;5049595;28;20033;-67
2022/03/28 07:45:48;;;;;;;4.13;3.70;;;18.10;57.60;;;;;;5048854;28;20471;-67
2022/03/28 07:48:14;;;;;;;3.80;3.50;;;18.10;57.60;;;;;;5046690;28;20021;-67
2022/03/28 07:50:40;;;;;;;4.10;3.75;;;18.10;57.60;;;;;;5048664;28;20107;-67
2022/03/28 07:53:06;;;;;;;3.80;3.50;;;18.10;57.60;;;;;;5046336;28;20576;-67
2022/03/28 07:55:32;;;;;;;5.55;3.78;;;18.10;57.60;;;;;;5044372;28;20034;-67
2022/03/28 07:58:01;;;;;;;4.80;3.78;;;18.10;57.60;;;;;;5044434;28;20446;-67
2022/03/28 08:00:29;;;;;;;4.75;3.75;;;18.10;57.60;;;;;;5048431;28;20087;-67
2022/03/28 08:02:55;;;;;;;4.10;3.58;;;18.10;57.60;;;;;;5044433;28;20024;-67
2022/03/28 08:05:21;;;;;;;3.83;3.42;;;18.10;57.60;;;;;;5044377;28;20013;-67
2022/03/28 08:07:48;;;;;;;6.15;3.42;;;18.10;57.60;;;;;;5046228;28;20021;-67
2022/03/28 08:10:13;;;;;;;4.20;3.80;;;18.10;57.60;;;;;;5047582;28;20025;-67
2022/03/28 08:12:42;;;;;;;3.72;3.38;;;18.10;57.60;;;;;;5049591;28;20013;-67
2022/03/28 08:15:07;;;;;;;4.60;3.53;;;18.10;57.60;;;;;;5046730;28;20120;-67
2022/03/28 08:17:35;;;;;;;3.85;3.42;;;18.10;57.60;;;;;;5033439;28;20092;-67
2022/03/28 08:20:01;;;;;;;4.30;3.20;;;18.10;57.60;;;;;;5045050;28;20017;-67
2022/03/28 08:22:26;;;;;;;3.75;3.38;;;18.00;57.60;;;;;;5067982;28;20127;-67
2022/03/28 08:24:52;;;;;;;3.63;3.33;;;18.10;57.70;;;;;;5049350;28;20026;-67
2022/03/28 08:27:18;;;;;;;3.42;3.10;;;18.10;57.70;;;;;;5051840;28;20028;-67
2022/03/28 08:29:43;;;;;;;4.57;4.05;;;18.00;57.70;;;;;;5045709;28;20136;-67
2022/03/28 08:32:09;;;;;;;7.03;4.03;;;18.10;57.70;;;;;;5048708;28;20021;-67
2022/03/28 08:34:35;;;;;;;6.63;4.13;;;18.00;57.50;;;;;;5051668;28;20399;-67
2022/03/28 08:37:02;;;;;;;4.07;3.78;;;18.00;57.50;;;;;;5043023;28;20156;-67
2022/03/28 08:39:27;;;;;;;3.95;3.63;;;18.00;57.40;;;;;;5050281;28;20028;-68
2022/03/28 08:41:53;;;;;;;4.65;3.55;;;18.00;57.40;;;;;;5067549;28;20521;-67
2022/03/28 08:44:20;;;;;;;4.20;3.80;;;18.00;57.40;;;;;;5051024;28;20041;-67
2022/03/28 08:46:45;;;;;;;4.32;3.92;;;18.00;57.30;;;;;;5048504;28;20127;-67
2022/03/28 08:49:12;;;;;;;4.22;3.70;;;18.00;57.40;;;;;;5051283;28;20114;-67
2022/03/28 08:51:39;;;;;;;7.20;5.22;;;18.00;57.30;;;;;;5044853;28;20143;-67
2022/03/28 08:54:04;;;;;;;10.48;6.18;;;18.00;57.30;;;;;;5039577;28;20047;-67
2022/03/28 08:56:30;;;;;;;8.43;6.78;;;18.00;57.30;;;;;;5049488;28;20025;-67
2022/03/28 08:58:56;;;;;;;9.45;7.53;;;17.90;57.30;;;;;;5050111;28;20075;-67
2022/03/28 09:01:22;;;;;;;10.13;7.47;;;17.90;57.20;;;;;;5050258;28;20033;-67
2022/03/28 09:03:48;;;;;;;12.57;7.55;;;17.90;57.20;;;;;;5032617;28;20025;-68
2022/03/28 09:06:39;;;;;;;8.88;7.53;;;17.90;57.10;;;;;;5048056;28;20023;-67
2022/03/28 09:09:26;;;;;;;10.82;8.32;;;17.90;57.00;;;;;;5052057;28;20034;-67
2022/03/28 09:12:04;;;;;;;9.57;8.23;;;17.90;57.10;;;;;;5049866;28;20017;-67
2022/03/28 09:14:34;;;;;;;9.80;7.95;;;17.90;57.20;;;;;;5027718;28;20030;-68
2022/03/28 09:17:06;;;;;;;11.57;7.97;;;17.90;57.20;;;;;;5045078;28;20020;-68
2022/03/28 09:19:49;;;;;;;10.23;8.20;;;17.90;57.20;;;;;;5031975;28;20041;-68
2022/03/28 09:22:26;;;;;;;12.80;8.63;;;17.90;57.00;;;;;;5047424;28;20028;-68
2022/03/28 09:24:54;;;;;;;10.98;8.52;;;17.80;57.10;;;;;;5030711;28;20070;-68
2022/03/28 09:27:22;;;;;;;13.35;8.68;;;17.80;57.10;;;;;;5051741;28;20045;-68
2022/03/28 09:30:12;;;;;;;14.13;9.30;;;17.80;57.10;;;;;;5052135;28;20029;-68
2022/03/28 09:32:40;;;;;;;12.40;9.65;;;17.90;57.10;;;;;;5045284;28;20114;-68
2022/03/28 09:35:20;;;;;;;13.30;9.00;;;17.80;57.10;;;;;;5066777;28;20112;-68
2022/03/28 09:37:58;;;;;;;11.65;9.10;;;17.80;57.10;;;;;;5045807;28;20488;-68
2022/03/28 09:40:38;;;;;;;10.57;8.77;;;17.80;57.10;;;;;;5052040;28;20140;-68
2022/03/28 09:43:30;;;;;;;13.02;9.00;;;17.80;57.10;;;;;;5048189;28;20045;-68
2022/03/28 09:45:58;;;;;;;12.00;8.70;;;17.90;57.10;;;;;;5047876;28;20024;-68
2022/03/28 09:48:26;;;;;;;10.07;7.15;;;17.80;57.20;;;;;;5015658;28;20388;-68
2022/03/28 09:51:03;;;;;;;15.25;8.40;;;17.80;57.20;;;;;;5027689;28;20040;-69
2022/03/28 09:53:32;;;;;;;16.58;8.13;;;17.80;57.20;;;;;;5032623;28;20025;-70
2022/03/28 09:56:03;;;;;;;17.83;7.68;;;17.80;57.30;;;;;;5032971;28;20029;-70
2022/03/28 09:58:46;;;;;;;24.63;8.15;;;17.80;57.30;;;;;;5051834;28;20025;-70
2022/03/28 10:01:20;;;;;;;23.80;8.02;;;17.90;57.50;;;;;;5051970;28;20063;-70
2022/03/28 10:03:54;;;;;;;21.27;7.88;;;17.90;57.60;;;;;;5053247;28;20029;-70
2022/03/28 10:06:21;;;;;;;13.88;7.18;;;17.90;57.60;;;;;;5051974;28;20024;-70
2022/03/28 10:08:48;;;;;;;21.55;7.30;;;17.90;57.60;;;;;;5053677;28;20021;-70
2022/03/28 10:11:16;;;;;;;13.68;7.40;;;17.90;58.60;;;;;;5016216;28;20407;-70
2022/03/28 10:13:43;;;;;;;18.75;7.38;;;17.90;57.80;;;;;;5032328;28;20096;-70
2022/03/28 10:16:10;;;;;;;17.50;6.70;;;17.90;57.70;;;;;;5031838;28;20107;-70
2022/03/28 10:18:37;;;;;;;15.45;6.97;;;17.90;57.70;;;;;;5032168;28;20030;-70
2022/03/28 10:21:15;;;;;;;13.90;6.80;;;17.90;57.70;;;;;;5032149;28;20120;-70
2022/03/28 10:23:53;;;;;;;13.85;6.90;;;18.00;57.90;;;;;;5032118;28;20033;-70
2022/03/28 10:26:39;;;;;;;12.60;6.40;;;18.00;57.80;;;;;;5031846;28;20036;-70
2022/03/28 10:29:07;;;;;;;16.42;6.80;;;17.90;58.80;;;;;;5033284;28;20025;-70
2022/03/28 10:31:34;;;;;;;18.33;6.65;;;17.90;57.90;;;;;;5033233;28;20108;-70
2022/03/28 10:34:01;;;;;;;13.25;6.07;;;17.90;57.80;;;;;;5015431;28;20028;-70
2022/03/28 10:36:29;;;;;;;10.55;6.32;;;17.90;57.90;;;;;;5031811;28;20065;-70
2022/03/28 10:38:57;;;;;;;14.10;6.80;;;17.90;57.90;;;;;;5031939;28;20075;-69
2022/03/28 10:41:25;;;;;;;19.30;6.82;;;17.90;57.90;;;;;;5015151;28;20037;-69
2022/03/28 10:43:50;;;;;;;16.23;6.85;;;18.00;58.00;;;;;;5034196;28;20044;-70
2022/03/28 10:46:16;;;;;;;14.20;7.10;;;18.00;58.00;;;;;;5036411;28;20021;-70
2022/03/28 10:48:55;;;;;;;12.93;6.40;;;17.90;57.90;;;;;;5015159;28;20018;-69
2022/03/28 10:51:24;;;;;;;13.85;7.32;;;17.90;58.00;;;;;;5018360;28;20403;-69
2022/03/28 10:53:53;;;;;;;13.40;6.78;;;17.90;58.00;;;;;;5035482;28;20455;-69
2022/03/28 10:56:24;;;;;;;13.40;6.78;;;17.90;58.00;;;;;;5034617;28;20021;-68
2022/03/28 10:58:54;;;;;;;13.18;6.07;;;17.90;58.00;;;;;;5039143;28;20410;-68
2022/03/28 11:01:24;;;;;;;15.73;6.25;;;17.90;58.00;;;;;;5038817;28;20402;-67
2022/03/28 11:04:02;;;;;;;12.07;6.60;;;17.90;58.00;;;;;;5039312;28;20017;-67
2022/03/28 11:06:43;;;;;;;15.73;6.22;;;17.90;58.10;;;;;;5039015;28;20169;-67
2022/03/28 11:09:09;;;;;;;13.45;6.30;;;17.90;58.00;;;;;;5037336;28;20092;-67
2022/03/28 11:11:35;;;;;;;11.48;5.95;;;17.90;58.10;;;;;;5040917;28;20502;-68
2022/03/28 11:14:04;;;;;;;10.27;5.95;;;17.90;58.10;;;;;;5041695;28;20029;-68
2022/03/28 11:16:52;;;;;;;10.05;5.93;;;17.90;58.10;;;;;;5040824;28;20022;-68
2022/03/28 11:19:29;;;;;;;12.15;5.47;;;17.90;58.00;;;;;;5041277;28;20018;-67
2022/03/28 11:22:01;;;;;;;10.75;5.35;;;17.90;58.00;;;;;;5041095;28;20537;-68
2022/03/28 11:24:46;;;;;;;10.45;5.28;;;17.90;58.10;;;;;;5030023;28;20076;-68
2022/03/28 11:27:13;;;;;;;11.20;6.07;;;17.90;58.00;;;;;;5030517;28;20022;-67
2022/03/28 11:29:38;;;;;;;13.50;5.03;;;17.80;58.00;;;;;;5029536;28;20047;-67
2022/03/28 11:32:08;;;;;;;11.57;5.68;;;17.90;58.10;;;;;;5029695;28;20033;-67
2022/03/28 11:34:34;;;;;;;12.25;5.18;;;17.90;58.10;;;;;;5044147;28;20098;-67
2022/03/28 11:37:00;;;;;;;12.38;5.18;;;17.90;58.10;;;;;;5029912;28;20052;-67
2022/03/28 11:39:27;;;;;;;8.75;4.68;;;17.90;58.00;;;;;;5028360;28;20043;-67
2022/03/28 11:41:53;;;;;;;10.10;4.93;;;17.90;58.00;;;;;;5030088;28;20049;-70
2022/03/28 11:44:19;;;;;;;10.32;5.07;;;17.90;57.90;;;;;;5028348;28;20117;-68
2022/03/28 11:46:52;;;;;;;8.77;4.38;;;17.90;58.00;;;;;;5044829;28;20144;-70
2022/03/28 11:49:18;;;;;;;8.15;4.85;;;17.90;57.90;;;;;;5040655;28;20013;-67
2022/03/28 11:51:44;;;;;;;9.68;4.40;;;17.90;58.00;;;;;;5055299;28;20021;-68
2022/03/28 11:54:18;;;;;;;10.63;5.05;;;17.90;57.90;;;;;;5055295;28;20019;-68
2022/03/28 11:59:31;;;;;;;8.75;4.50;;;17.90;57.90;;;;;;5035123;28;20036;-68
2022/03/28 12:01:58;;;;;;;7.88;4.43;;;17.90;57.90;;;;;;5034037;28;20029;-68
2022/03/28 12:04:24;;;;;;;11.07;4.82;;;17.90;57.90;;;;;;5031875;28;20021;-67
2022/03/28 12:06:51;;;;;;;8.43;4.25;;;17.90;57.80;;;;;;5053277;28;20486;-67
2022/03/28 12:09:17;;;;;;;10.55;4.88;;;17.90;57.80;;;;;;5051069;28;20018;-69
2022/03/28 12:11:47;;;;;;;9.05;5.03;;;17.90;57.80;;;;;;5054086;28;20036;-69
2022/03/28 12:14:13;;;;;;;8.45;4.78;;;17.90;57.80;;;;;;5053903;28;20017;-69
2022/03/28 12:16:49;;;;;;;8.10;3.85;;;17.90;57.90;;;;;;5043085;28;20495;-69
2022/03/28 12:19:18;;;;;;;7.22;3.85;;;17.90;57.80;;;;;;5052284;28;20097;-71
2022/03/28 12:21:44;;;;;;;8.43;4.20;;;17.90;57.80;;;;;;5052132;28;20033;-69
2022/03/28 12:24:10;;;;;;;9.80;4.53;;;17.90;57.80;;;;;;5048665;28;20026;-68
2022/03/28 12:26:45;;;;;;;11.00;4.50;;;17.90;57.80;;;;;;5046792;28;20360;-68
2022/03/28 12:29:14;;;;;;;8.38;4.30;;;18.00;57.70;;;;;;5054042;28;20100;-68
2022/03/28 12:31:47;;;;;;;6.78;4.15;;;17.90;57.70;;;;;;5038986;28;20060;-68
2022/03/28 12:34:13;;;;;;;8.43;4.38;;;17.90;57.70;;;;;;5053078;28;20100;-68
2022/03/28 12:36:39;;;;;;;9.15;4.10;;;17.90;57.70;;;;;;5052255;28;20475;-68
2022/03/28 12:39:07;;;;;;;9.25;4.63;;;17.90;57.70;;;;;;5050255;28;20383;-68
2022/03/28 12:41:49;;;;;;;9.07;4.60;;;17.90;57.70;;;;;;5049160;28;20056;-68
2022/03/28 12:44:16;;;;;;;6.72;3.72;;;18.00;57.60;;;;;;5067372;28;20033;-68
2022/03/28 12:46:41;;;;;;;8.85;4.10;;;17.90;57.70;;;;;;5051012;28;20502;-69
2022/03/28 12:49:08;;;;;;;11.00;4.60;;;17.90;57.60;;;;;;5054652;28;20021;-68